| time (UTC) | temp F | wind direction | speed knots | gust knots | rain 1hr in | rain 24hr in | rain mn in | humidity % | barometer mb |
| 20260508023057 | 60 | 136 | 3.5 | 12.2 | 0.00 | 0.00 | 0.00 | 36 | 1014.9 |
| 20260508021518 | 60 | 178 | 4.3 | 12.2 | 0.00 | 0.00 | 0.00 | 35 | 1014.6 |
| 20260508020108 | 60 | 117 | 0.9 | 7.8 | 0.00 | 0.00 | 0.00 | 35 | 1014.5 |
| 20260508014518 | 59 | 66 | 1.7 | 7.8 | 0.00 | 0.00 | 0.00 | 35 | 1014.7 |
| 20260508013042 | 60 | 161 | 0.9 | 6.1 | 0.00 | 0.00 | 0.00 | 33 | 1014.8 |
| 20260508011512 | 60 | 288 | 2.6 | 12.2 | 0.00 | 0.00 | 0.00 | 33 | 1014.8 |
| 20260508010046 | 60 | 148 | 2.6 | 9.6 | 0.00 | 0.00 | 0.00 | 33 | 1015.0 |
| 20260508004600 | 59 | 114 | 2.6 | 11.3 | 0.00 | 0.00 | 0.00 | 35 | 1015.1 |
| 20260508003034 | 58 | 173 | 0.9 | 7.0 | 0.00 | 0.00 | 0.00 | 37 | 1015.2 |
| 20260508001554 | 59 | 167 | 5.2 | 8.7 | 0.00 | 0.00 | 0.00 | 37 | 1015.4 |
| 20260508000028 | 59 | 182 | 2.6 | 7.0 | 0.00 | 0.00 | 0.00 | 37 | 1016.0 |
| 20260507234542 | 59 | 217 | 2.6 | 6.1 | 0.00 | 0.00 | 0.00 | 37 | 1016.3 |
| 20260507233026 | 58 | 123 | 1.7 | 8.7 | 0.00 | 0.00 | 0.00 | 38 | 1016.5 |
| 20260507231529 | 58 | 207 | 0.0 | 6.1 | 0.00 | 0.00 | 0.00 | 38 | 1016.9 |
| 20260507230024 | 58 | 323 | 0.0 | 5.2 | 0.00 | 0.00 | 0.00 | 39 | 1016.9 |
| 20260507224535 | 58 | 44 | 1.7 | 7.8 | 0.00 | 0.00 | 0.00 | 40 | 1017.1 |
| 20260507223016 | 58 | 144 | 0.9 | 6.1 | 0.00 | 0.00 | 0.00 | 40 | 1017.2 |
| 20260507221527 | 57 | 79 | 0.0 | 2.6 | 0.00 | 0.00 | 0.00 | 43 | 1017.5 |
| 20260507220006 | 57 | 127 | 0.0 | 7.0 | 0.00 | 0.00 | 0.00 | 42 | 1017.5 |
| 20260507214522 | 57 | 271 | 0.9 | 5.2 | 0.00 | 0.00 | 0.00 | 44 | 1017.5 |
| 20260507213015 | 57 | 142 | 0.0 | 7.8 | 0.00 | 0.00 | 0.00 | 43 | 1017.5 |
| 20260507211530 | 58 | 317 | 0.9 | 7.0 | 0.00 | 0.00 | 0.00 | 37 | 1017.5 |
| 20260507210049 | 58 | 298 | 0.9 | 5.2 | 0.00 | 0.00 | 0.00 | 37 | 1017.4 |
| 20260507204509 | 58 | 155 | 0.9 | 7.8 | 0.00 | 0.00 | 0.00 | 35 | 1017.7 |
| 20260507203050 | 58 | 305 | 2.6 | 10.4 | 0.00 | 0.00 | 0.00 | 34 | 1018.1 |
| 20260507201525 | 58 | 11 | 1.7 | 7.0 | 0.00 | 0.00 | 0.00 | 39 | 1018.2 |
| 20260507200008 | 58 | 298 | 0.9 | 6.1 | 0.00 | 0.00 | 0.00 | 46 | 1018.2 |
| 20260507194524 | 57 | 167 | 0.9 | 6.1 | 0.00 | 0.00 | 0.00 | 46 | 1018.3 |
| 20260507193006 | 57 | 303 | 0.0 | 4.3 | 0.00 | 0.00 | 0.00 | 44 | 1018.5 |
| 20260507191530 | 57 | 9 | 0.9 | 5.2 | 0.00 | 0.00 | 0.00 | 43 | 1018.5 |
| 20260507190023 | 57 | 326 | 0.0 | 5.2 | 0.00 | 0.00 | 0.00 | 41 | 1018.4 |
| 20260507184537 | 57 | 69 | 0.9 | 6.1 | 0.00 | 0.00 | 0.00 | 41 | 1018.2 |
| 20260507183015 | 57 | 70 | 0.9 | 5.2 | 0.00 | 0.00 | 0.00 | 39 | 1018.1 |
| 20260507181535 | 57 | 10 | 0.0 | 1.7 | 0.00 | 0.00 | 0.00 | 39 | 1018.0 |
| 20260507180038 | 57 | 142 | 0.9 | 6.1 | 0.00 | 0.00 | 0.00 | 36 | 1018.0 |
| 20260507174552 | 57 | 13 | 0.0 | 1.7 | 0.00 | 0.00 | 0.00 | 38 | 1018.0 |
| 20260507173048 | 58 | 146 | 0.9 | 7.0 | 0.00 | 0.00 | 0.00 | 35 | 1017.8 |
| 20260507171559 | 59 | 142 | 1.7 | 8.7 | 0.00 | 0.00 | 0.00 | 33 | 1017.8 |
| 20260507171503 | 59 | 113 | 2.6 | 8.7 | 0.00 | 0.00 | 0.00 | 34 | 1017.9 |
| 20260507170050 | 60 | 195 | 3.5 | 8.7 | 0.00 | 0.00 | 0.00 | 35 | 1017.8 |
| 20260507164505 | 61 | 181 | 1.7 | 10.4 | 0.00 | 0.00 | 0.00 | 28 | 1017.9 |
| 20260507163045 | 62 | 49 | 1.7 | 8.7 | 0.00 | 0.00 | 0.00 | 32 | 1017.7 |
| 20260507161511 | 62 | 198 | 2.6 | 6.1 | 0.00 | 0.00 | 0.00 | 32 | 1017.9 |
| 20260507160003 | 63 | 171 | 1.7 | 5.2 | 0.00 | 0.00 | 0.00 | 35 | 1018.1 |
| 20260507154522 | 63 | 147 | 2.6 | 7.8 | 0.00 | 0.00 | 0.00 | 35 | 1018.0 |
| 20260507153008 | 63 | 190 | 0.9 | 8.7 | 0.00 | 0.00 | 0.00 | 48 | 1018.3 |
| 20260507151529 | 64 | 238 | 1.7 | 7.0 | 0.00 | 0.00 | 0.00 | 44 | 1018.2 |
| 20260507150013 | 64 | 211 | 1.7 | 7.8 | 0.00 | 0.00 | 0.00 | 47 | 1018.1 |
| 20260507144534 | 64 | 236 | 1.7 | 6.1 | 0.00 | 0.00 | 0.00 | 44 | 1018.1 |
| 20260507143021 | 64 | 142 | 1.7 | 7.8 | 0.00 | 0.00 | 0.00 | 51 | 1018.2 |
| 20260507141542 | 63 | 196 | 2.6 | 8.7 | 0.00 | 0.00 | 0.00 | 49 | 1018.0 |
| 20260507140028 | 63 | 226 | 0.9 | 7.0 | 0.00 | 0.00 | 0.00 | 46 | 1018.1 |
| 20260507134545 | 64 | 58 | 2.6 | 8.7 | 0.00 | 0.00 | 0.00 | 46 | 1018.3 |
| 20260507133023 | 64 | 201 | 2.6 | 8.7 | 0.00 | 0.00 | 0.00 | 44 | 1018.3 |
| 20260507131551 | 64 | 222 | 0.9 | 7.0 | 0.00 | 0.00 | 0.00 | 41 | 1018.4 |
| 20260507130029 | 64 | 344 | 0.9 | 5.2 | 0.00 | 0.00 | 0.00 | 33 | 1018.4 |
| 20260507124539 | 64 | 163 | 0.9 | 5.2 | 0.00 | 0.00 | 0.00 | 24 | 1018.4 |
| 20260507123024 | 65 | 300 | 0.9 | 3.5 | 0.00 | 0.00 | 0.00 | 25 | 1018.5 |
| 20260507121554 | 66 | 96 | 0.9 | 5.2 | 0.00 | 0.00 | 0.00 | 23 | 1018.4 |
| 20260507120028 | 67 | 266 | 0.9 | 7.8 | 0.00 | 0.00 | 0.00 | 23 | 1018.5 |
| 20260507114559 | 69 | 207 | 0.9 | 6.1 | 0.00 | 0.00 | 0.00 | 25 | 1018.4 |
| 20260507113033 | 68 | 101 | 2.6 | 8.7 | 0.00 | 0.00 | 0.00 | 23 | 1018.5 |
| 20260507111550 | 68 | 262 | 0.9 | 3.5 | 0.00 | 0.00 | 0.00 | 27 | 1018.4 |
| 20260507110052 | 67 | 265 | 0.0 | 3.5 | 0.00 | 0.00 | 0.00 | 48 | 1018.5 |
| 20260507104505 | 68 | 302 | 0.9 | 4.3 | 0.00 | 0.00 | 0.00 | 44 | 1018.6 |
| 20260507103107 | 68 | 329 | 0.0 | 2.6 | 0.00 | 0.00 | 0.00 | 43 | 1018.7 |
| 20260507101503 | 68 | 346 | 0.9 | 4.3 | 0.00 | 0.00 | 0.00 | 29 | 1019.0 |
| 20260507100049 | 68 | 179 | 0.9 | 4.3 | 0.00 | 0.00 | 0.00 | 31 | 1019.0 |
| 20260507094502 | 68 | 288 | 2.6 | 6.1 | 0.00 | 0.00 | 0.00 | 45 | 1019.3 |
| 20260507093037 | 65 | 310 | 1.7 | 5.2 | 0.00 | 0.00 | 0.00 | 48 | 1019.1 |
| 20260507091547 | 63 | 301 | 0.0 | 1.7 | 0.00 | 0.00 | 0.00 | 40 | 1019.0 |
| 20260507090059 | 64 | 305 | 0.9 | 4.3 | 0.00 | 0.00 | 0.00 | 36 | 1018.1 |
| 20260507090000 | 65 | 301 | 0.9 | 4.3 | 0.00 | 0.00 | 0.00 | 34 | 1018.1 |
| 20260507084537 | 66 | 224 | 0.0 | 1.7 | 0.00 | 0.00 | 0.00 | 29 | 1018.7 |
| 20260507083028 | 65 | 338 | 0.0 | 1.7 | 0.00 | 0.00 | 0.00 | 37 | 1018.8 |
| 20260507081546 | 64 | 28 | 0.0 | 1.7 | 0.00 | 0.00 | 0.00 | 40 | 1019.2 |
| 20260507080029 | 64 | 348 | 0.9 | 3.5 | 0.00 | 0.00 | 0.00 | 47 | 1019.4 |
| 20260507074548 | 66 | 312 | 1.7 | 3.5 | 0.00 | 0.00 | 0.00 | 33 | 1019.3 |
| 20260507073014 | 64 | 212 | 0.9 | 2.6 | 0.00 | 0.00 | 0.00 | 36 | 1019.1 |
| 20260507071526 | 62 | 53 | 0.0 | 1.7 | 0.00 | 0.00 | 0.00 | 38 | 1019.2 |
| 20260507070009 | 61 | 36 | 0.0 | 1.7 | 0.00 | 0.00 | 0.00 | 38 | 1019.5 |
| 20260507064520 | 60 | 23 | 0.0 | 2.6 | 0.00 | 0.00 | 0.00 | 38 | 1019.6 |
| 20260507063052 | 59 | 280 | 0.0 | 2.6 | 0.00 | 0.00 | 0.00 | 38 | 1019.2 |
| 20260507061504 | 57 | 105 | 0.9 | 3.5 | 0.00 | 0.00 | 0.00 | 38 | 1018.9 |
| 20260507060034 | 56 | 63 | 0.0 | 1.7 | 0.00 | 0.00 | 0.00 | 53 | 1019.0 |
| 20260507054602 | 55 | 76 | 0.9 | 2.6 | 0.00 | 0.00 | 0.00 | 45 | 1019.2 |
| 20260507053010 | 53 | 115 | 0.0 | 0.0 | 0.00 | 0.00 | 0.00 | 55 | 1019.4 |
| 20260507051526 | 52 | 115 | 0.0 | 0.0 | 0.00 | 0.00 | 0.00 | 55 | 1019.5 |
| 20260507050019 | 51 | 115 | 0.0 | 0.0 | 0.00 | 0.00 | 0.00 | 54 | 1019.3 |
| 20260507044516 | 51 | 115 | 0.0 | 0.0 | 0.00 | 0.00 | 0.00 | 51 | 1018.8 |
| 20260507043100 | 50 | 115 | 0.0 | 0.0 | 0.00 | 0.00 | 0.00 | 50 | 1018.6 |
| 20260507041513 | 50 | 115 | 0.0 | 1.7 | 0.00 | 0.00 | 0.00 | 47 | 1018.4 |
| 20260507040001 | 50 | 115 | 0.0 | 0.0 | 0.00 | 0.00 | 0.00 | 45 | 1018.3 |
| 20260507034524 | 50 | 115 | 0.0 | 0.0 | 0.00 | 0.00 | 0.00 | 43 | 1018.2 |
| 20260507033014 | 50 | 115 | 0.0 | 0.0 | 0.00 | 0.00 | 0.00 | 44 | 1018.1 |
| 20260507031543 | 51 | 115 | 0.0 | 0.9 | 0.00 | 0.00 | 0.00 | 43 | 1017.9 |
| 20260507030019 | 51 | 113 | 0.0 | 0.0 | 0.00 | 0.00 | 0.00 | 42 | 1017.9 |
| 20260507024547 | 51 | 113 | 0.0 | 0.9 | 0.00 | 0.00 | 0.00 | 43 | 1018.2 |